Terminal Aerodrome Forecast
Issued by NWS

Home | Current Version | Previous Version | Graphics & Text | Print | Product List | Glossary On
Versions: 1 2 3 4 5 6 7 8 9 10 11 12 13 14 15 16 17
000
FTUS43 KBIS 311136
TAFMOT
TAF
KMOT 311136Z 3112/0112 12009KT P6SM VCSH OVC090
     FM311600 13013G21KT P6SM OVC070
     FM010200 14010KT P6SM SCT045 SCT080=

USA.gov is the U.S. government's official web portal to all federal, state and local government web resources and services.